Terminal Aerodrome Forecast
Issued by NWS

Home | Current Version | Previous Version | Text Only | Print | Product List | Glossary On
Versions: 1 2 3 4 5 6 7 8 9 10 11 12 13 14 15 16 17 18 19 20 21 22 23 24 25 26 27 28
000
FTUS44 KOUN 240521
TAFLAW
TAF
KLAW 240521Z 2406/2506 06010KT P6SM -RA SCT008 OVC035
     FM240700 12018G28KT P6SM SCT008 OVC050
     FM240800 14011KT 5SM BR OVC008
     FM242000 17012KT 6SM BR SCT015 OVC030
     FM250300 16013KT P6SM OVC015=

USA.gov is the U.S. government's official web portal to all federal, state and local government web resources and services.